createdAt,value
2022-09-26T00:01:56.799Z,6.43
2022-09-26T00:04:46.238Z,4.63
2022-09-26T00:07:33.594Z,8.40
2022-09-26T00:10:21.987Z,6.43
2022-09-26T00:13:11.452Z,5.82
2022-09-26T00:15:59.869Z,6.28
2022-09-26T00:18:50.583Z,7.90
2022-09-26T00:21:41.346Z,6.53
2022-09-26T00:24:30.024Z,7.40
2022-09-26T00:27:22.625Z,7.25
2022-09-26T00:30:12.466Z,6.82
2022-09-26T00:33:00.296Z,5.03
2022-09-26T00:35:52.285Z,6.47
2022-09-26T00:38:42.241Z,5.43
2022-09-26T00:41:30.439Z,6.72
2022-09-26T00:44:43.917Z,6.85
2022-09-26T00:47:45.093Z,6.30
2022-09-26T00:50:38.966Z,6.25
2022-09-26T00:53:34.879Z,5.75
2022-09-26T00:56:31.919Z,6.55
2022-09-26T00:59:28.373Z,6.53
2022-09-26T01:02:18.099Z,4.00
2022-09-26T01:05:08.574Z,5.63
2022-09-26T01:07:58.350Z,8.45
2022-09-26T01:10:46.075Z,6.78
2022-09-26T01:13:37.740Z,5.65
2022-09-26T01:16:26.023Z,6.28
2022-09-26T01:19:30.289Z,6.25
2022-09-26T01:23:04.333Z,9.68
2022-09-26T01:26:35.837Z,8.25
2022-09-26T01:30:08.727Z,6.03
2022-09-26T01:33:36.731Z,7.20
2022-09-26T01:37:04.559Z,6.25
2022-09-26T01:40:06.474Z,7.47
2022-09-26T01:43:08.956Z,6.20
2022-09-26T01:46:09.133Z,6.10
2022-09-26T01:49:12.282Z,5.63
2022-09-26T01:55:03.442Z,5.90
2022-09-26T01:57:56.556Z,7.25
2022-09-26T02:00:49.113Z,6.30
2022-09-26T02:03:44.728Z,6.32
2022-09-26T02:06:42.149Z,9.35
2022-09-26T02:09:36.818Z,11.73
2022-09-26T02:12:33.320Z,5.40
2022-09-26T02:15:25.862Z,10.82
2022-09-26T02:18:21.696Z,8.27
2022-09-26T02:21:18.943Z,12.13
2022-09-26T02:24:07.367Z,7.03
2022-09-26T02:26:57.276Z,5.60
2022-09-26T02:29:46.236Z,5.82
2022-09-26T02:32:35.372Z,10.38
2022-09-26T02:35:43.877Z,6.55
2022-09-26T02:38:39.077Z,6.60
2022-09-26T02:41:41.240Z,6.85
2022-09-26T02:44:56.874Z,7.38
2022-09-26T02:48:16.966Z,7.18
2022-09-26T02:51:27.751Z,10.88
2022-09-26T02:54:30.241Z,8.02
2022-09-26T02:57:34.355Z,10.25
2022-09-26T03:00:26.827Z,10.85
2022-09-26T03:03:24.270Z,6.70
2022-09-26T03:06:18.907Z,11.80
2022-09-26T03:09:09.597Z,6.13
2022-09-26T03:12:06.357Z,6.15
2022-09-26T03:15:04.254Z,8.23
2022-09-26T03:17:58.145Z,8.57
2022-09-26T03:20:50.102Z,8.40
2022-09-26T03:23:38.504Z,9.55
2022-09-26T03:26:30.766Z,10.43
2022-09-26T03:29:20.492Z,5.77
2022-09-26T03:32:10.665Z,9.77
2022-09-26T03:34:59.263Z,6.47
2022-09-26T03:37:48.001Z,7.03
2022-09-26T03:40:37.326Z,9.68
2022-09-26T03:43:24.984Z,11.00
2022-09-26T03:46:15.977Z,8.40
2022-09-26T03:49:04.146Z,5.40
2022-09-26T03:51:52.504Z,7.22
2022-09-26T03:54:40.818Z,9.43
2022-09-26T03:57:28.546Z,7.72
2022-09-26T04:00:17.244Z,9.48
2022-09-26T04:03:06.971Z,6.63
2022-09-26T04:05:55.626Z,10.73
2022-09-26T04:08:43.786Z,8.00
2022-09-26T04:11:31.558Z,8.32
2022-09-26T04:14:20.247Z,6.72
2022-09-26T04:17:08.730Z,9.32
2022-09-26T04:19:59.778Z,9.23
2022-09-26T04:22:47.699Z,7.55
2022-09-26T04:25:39.083Z,8.20
2022-09-26T04:28:26.940Z,6.53
2022-09-26T04:31:15.351Z,8.77
2022-09-26T04:34:03.232Z,6.82
2022-09-26T04:36:57.036Z,11.10
2022-09-26T04:39:44.987Z,5.32
2022-09-26T04:42:36.904Z,12.50
2022-09-26T04:45:24.906Z,8.77
2022-09-26T04:48:12.455Z,11.45
2022-09-26T04:51:00.006Z,9.90
2022-09-26T04:53:50.441Z,6.60
2022-09-26T04:56:38.321Z,17.70
2022-09-26T04:59:26.175Z,24.23
2022-09-26T05:02:14.018Z,31.65
2022-09-26T05:05:01.844Z,27.20
2022-09-26T05:07:49.248Z,26.73
2022-09-26T05:10:38.142Z,21.83
2022-09-26T05:13:27.712Z,11.95
2022-09-26T05:16:16.305Z,9.32
2022-09-26T05:19:04.517Z,10.93
2022-09-26T05:21:52.517Z,8.23
2022-09-26T05:24:57.938Z,6.82
2022-09-26T05:27:47.640Z,8.93
2022-09-26T05:30:36.547Z,10.30
2022-09-26T05:33:24.607Z,9.13
2022-09-26T05:36:12.885Z,8.88
2022-09-26T05:39:03.954Z,8.43
2022-09-26T05:41:53.347Z,10.13
2022-09-26T05:44:42.612Z,5.97
2022-09-26T05:47:32.262Z,9.68
2022-09-26T05:50:22.357Z,8.43
2022-09-26T05:53:09.890Z,6.60
2022-09-26T05:55:57.297Z,7.78
2022-09-26T05:58:44.926Z,7.82
2022-09-26T06:01:35.419Z,8.30
2022-09-26T06:04:22.901Z,6.20
2022-09-26T06:07:10.543Z,6.30
2022-09-26T06:09:58.139Z,5.38
2022-09-26T06:12:50.689Z,7.95
2022-09-26T06:15:39.889Z,5.03
2022-09-26T06:18:29.009Z,9.00
2022-09-26T06:21:19.853Z,6.35
2022-09-26T06:24:07.643Z,6.70
2022-09-26T06:26:55.013Z,7.13
2022-09-26T06:29:42.448Z,6.05
2022-09-26T06:32:29.833Z,9.30
2022-09-26T06:35:19.705Z,6.55
2022-09-26T06:38:07.711Z,7.25
2022-09-26T06:40:55.888Z,11.40
2022-09-26T06:43:44.932Z,7.05
2022-09-26T06:46:32.639Z,10.65
2022-09-26T06:49:20.277Z,9.40
2022-09-26T06:52:11.085Z,8.35
2022-09-26T06:54:58.548Z,9.07
2022-09-26T06:57:46.048Z,13.25
2022-09-26T07:00:35.804Z,12.43
2022-09-26T07:03:26.663Z,11.77
2022-09-26T07:06:14.488Z,10.75
2022-09-26T07:09:07.569Z,12.82
2022-09-26T07:12:15.780Z,13.68
2022-09-26T07:15:04.666Z,11.50
2022-09-26T07:17:52.407Z,14.10
2022-09-26T07:20:43.086Z,13.55
2022-09-26T07:23:30.731Z,12.40
2022-09-26T07:26:19.523Z,15.35
2022-09-26T07:29:07.198Z,15.57
2022-09-26T07:31:55.317Z,10.45
2022-09-26T07:34:43.974Z,13.20
2022-09-26T07:37:32.303Z,13.23
2022-09-26T07:40:21.729Z,15.15
2022-09-26T07:43:20.514Z,13.48
2022-09-26T07:46:26.151Z,14.93
2022-09-26T07:49:31.365Z,15.32
2022-09-26T07:52:22.562Z,14.93
2022-09-26T07:55:12.831Z,17.02
2022-09-26T07:58:00.738Z,13.65
2022-09-26T08:00:49.616Z,15.05
2022-09-26T08:03:37.042Z,12.70
2022-09-26T08:06:33.239Z,13.50
2022-09-26T08:09:20.994Z,14.98
2022-09-26T08:12:09.564Z,16.70
2022-09-26T08:14:57.956Z,16.17
2022-09-26T08:17:46.753Z,15.68
2022-09-26T08:20:35.720Z,15.43
2022-09-26T08:23:23.469Z,17.98
2022-09-26T08:26:11.638Z,17.02
2022-09-26T08:28:59.949Z,12.70
2022-09-26T08:31:48.682Z,10.02
2022-09-26T08:34:39.011Z,10.40
2022-09-26T08:37:27.897Z,9.88
2022-09-26T08:40:16.004Z,13.38
2022-09-26T08:43:19.588Z,12.75
2022-09-26T08:46:41.882Z,13.95
2022-09-26T08:49:51.264Z,12.35
2022-09-26T08:52:45.293Z,11.27
2022-09-26T08:55:40.985Z,11.48
2022-09-26T08:58:38.698Z,10.60
2022-09-26T09:01:31.226Z,13.13
2022-09-26T09:04:28.800Z,13.80
2022-09-26T09:07:24.379Z,10.57
2022-09-26T09:10:19.009Z,11.50
2022-09-26T09:13:24.015Z,9.00
2022-09-26T09:16:30.007Z,7.97
2022-09-26T09:19:35.421Z,11.15
2022-09-26T09:22:58.299Z,7.40
2022-09-26T09:29:33.214Z,10.05
2022-09-26T09:32:28.335Z,7.03
2022-09-26T09:35:38.438Z,8.48
2022-09-26T09:38:39.360Z,6.38
2022-09-26T09:41:35.642Z,7.72
2022-09-26T09:44:46.364Z,8.65
2022-09-26T09:47:40.217Z,7.60
2022-09-26T09:50:49.777Z,5.38
2022-09-26T09:54:43.701Z,6.85
2022-09-26T10:01:26.195Z,5.30
2022-09-26T10:04:35.204Z,6.03
2022-09-26T10:07:32.529Z,5.72
2022-09-26T10:10:28.808Z,7.80
2022-09-26T10:13:19.130Z,4.30
2022-09-26T10:16:09.387Z,4.25
2022-09-26T10:19:03.374Z,4.18
2022-09-26T10:21:52.871Z,5.15
2022-09-26T10:24:41.830Z,3.85
2022-09-26T10:27:54.671Z,3.83
2022-09-26T10:30:50.681Z,5.15
2022-09-26T10:33:46.066Z,4.82
2022-09-26T10:36:36.749Z,5.68
2022-09-26T10:39:44.442Z,5.43
2022-09-26T10:42:32.597Z,5.43
2022-09-26T10:45:27.417Z,4.97
2022-09-26T10:48:22.120Z,6.32
2022-09-26T10:51:11.810Z,4.50
2022-09-26T10:54:21.340Z,3.13
2022-09-26T10:57:20.930Z,6.32
2022-09-26T11:00:10.360Z,3.75
2022-09-26T11:02:59.533Z,4.30
2022-09-26T11:05:59.340Z,2.97
2022-09-26T11:08:54.025Z,4.65
2022-09-26T11:11:43.941Z,4.38
2022-09-26T11:14:34.339Z,2.67
2022-09-26T11:17:22.073Z,4.88
2022-09-26T11:20:21.675Z,3.45
2022-09-26T11:23:32.768Z,4.78
2022-09-26T11:29:53.191Z,5.80
2022-09-26T11:36:10.898Z,3.35
2022-09-26T11:39:13.234Z,7.20
2022-09-26T11:42:16.309Z,2.97
2022-09-26T11:45:16.472Z,6.03
2022-09-26T11:48:35.531Z,4.90
2022-09-26T11:51:46.040Z,4.93
2022-09-26T11:54:58.463Z,4.93
2022-09-26T11:58:03.419Z,3.17
2022-09-26T12:01:05.234Z,3.42
2022-09-26T12:04:15.829Z,5.75
2022-09-26T12:07:16.341Z,7.18
2022-09-26T12:10:21.045Z,6.85
2022-09-26T12:13:34.198Z,6.53
2022-09-26T12:16:35.881Z,4.70
2022-09-26T12:19:34.269Z,3.72
2022-09-26T12:22:36.112Z,6.18
2022-09-26T12:25:43.687Z,4.95
2022-09-26T12:29:05.703Z,3.90
2022-09-26T12:32:25.117Z,4.88
2022-09-26T12:35:36.297Z,7.57
2022-09-26T12:38:57.990Z,3.85
2022-09-26T12:42:11.985Z,3.90
2022-09-26T12:45:29.380Z,6.85
2022-09-26T12:48:44.517Z,5.15
2022-09-26T12:51:44.667Z,5.22
2022-09-26T12:55:09.608Z,4.18
2022-09-26T12:58:22.017Z,3.60
2022-09-26T13:01:28.409Z,3.63
2022-09-26T13:04:55.770Z,2.92
2022-09-26T13:08:02.187Z,3.95
2022-09-26T13:11:12.084Z,3.75
2022-09-26T13:14:39.487Z,4.25
2022-09-26T13:17:34.936Z,3.85
2022-09-26T13:20:32.559Z,3.45
2022-09-26T13:23:27.506Z,3.67
2022-09-26T13:26:26.171Z,5.80
2022-09-26T13:29:20.435Z,2.20
2022-09-26T13:32:22.965Z,5.13
2022-09-26T13:38:45.301Z,5.05
2022-09-26T13:41:51.357Z,2.63
2022-09-26T13:45:09.794Z,4.88
2022-09-26T13:48:09.254Z,3.72
2022-09-26T13:51:31.924Z,6.45
2022-09-26T13:54:45.170Z,3.45
2022-09-26T13:57:51.640Z,3.53
2022-09-26T14:00:53.234Z,2.20
2022-09-26T14:03:44.510Z,4.88
2022-09-26T14:06:33.187Z,3.05
2022-09-26T14:09:29.797Z,4.53
2022-09-26T14:12:34.622Z,5.18
2022-09-26T14:15:28.361Z,4.53
2022-09-26T14:18:34.409Z,2.97
2022-09-26T14:21:38.404Z,2.75
2022-09-26T14:24:45.234Z,2.03
2022-09-26T14:27:47.918Z,1.50
2022-09-26T14:30:39.939Z,1.92
2022-09-26T14:33:27.800Z,3.63
2022-09-26T14:36:27.259Z,3.03
2022-09-26T14:39:50.009Z,1.77
2022-09-26T14:42:49.920Z,1.30
2022-09-26T14:46:12.132Z,2.05
2022-09-26T14:49:11.438Z,1.75
2022-09-26T14:52:06.465Z,1.52
2022-09-26T14:55:02.865Z,1.55
2022-09-26T14:57:50.730Z,1.23
2022-09-26T15:00:44.565Z,3.25
2022-09-26T15:03:35.634Z,1.90
2022-09-26T15:06:26.697Z,2.28
2022-09-26T15:09:25.016Z,1.50
2022-09-26T15:12:21.345Z,1.42
2022-09-26T15:15:30.206Z,1.23
2022-09-26T15:18:34.646Z,1.20
2022-09-26T15:21:34.162Z,1.27
2022-09-26T15:24:33.611Z,5.03
2022-09-26T15:27:29.791Z,2.78
2022-09-26T15:30:32.014Z,3.38
2022-09-26T15:33:26.273Z,2.72
2022-09-26T15:36:18.403Z,1.30
2022-09-26T15:39:42.001Z,1.42
2022-09-26T15:42:51.227Z,2.00
2022-09-26T15:45:59.261Z,3.15
2022-09-26T15:48:47.697Z,1.80
2022-09-26T15:51:41.503Z,1.55
2022-09-26T15:57:49.382Z,1.77
2022-09-26T16:00:43.715Z,1.63
2022-09-26T16:03:57.248Z,2.15
2022-09-26T16:07:03.136Z,2.80
2022-09-26T16:09:52.835Z,4.55
2022-09-26T16:12:49.483Z,3.60
2022-09-26T16:16:07.945Z,7.68
2022-09-26T16:18:59.910Z,4.20
2022-09-26T16:21:47.737Z,4.13
2022-09-26T16:24:35.478Z,4.28
2022-09-26T16:27:28.006Z,3.33
2022-09-26T16:30:45.740Z,4.35
2022-09-26T16:33:35.716Z,8.20
2022-09-26T16:36:26.268Z,13.32
2022-09-26T16:39:23.964Z,11.07
2022-09-26T16:42:18.668Z,6.72
2022-09-26T16:45:15.712Z,4.75
2022-09-26T16:48:04.433Z,4.32
2022-09-26T16:51:15.622Z,5.45
2022-09-26T16:54:19.357Z,4.68
2022-09-26T16:57:11.073Z,5.22
2022-09-26T17:00:19.901Z,4.95
2022-09-26T17:03:25.697Z,8.10
2022-09-26T17:06:13.409Z,8.25
2022-09-26T17:09:14.322Z,7.57
2022-09-26T17:12:17.943Z,9.25
2022-09-26T17:15:10.496Z,6.25
2022-09-26T17:18:07.084Z,7.97
2022-09-26T17:20:59.160Z,11.40
2022-09-26T17:23:48.888Z,5.82
2022-09-26T17:26:36.636Z,5.20
2022-09-26T17:29:30.347Z,6.07
2022-09-26T17:32:31.228Z,5.75
2022-09-26T17:35:26.298Z,7.47
2022-09-26T17:38:18.830Z,14.50
2022-09-26T17:41:07.487Z,11.63
2022-09-26T17:44:00.937Z,10.55
2022-09-26T17:46:52.295Z,21.60
2022-09-26T17:49:41.867Z,17.33
2022-09-26T17:52:32.830Z,17.40
2022-09-26T17:55:22.944Z,12.25
2022-09-26T17:58:12.211Z,11.50
2022-09-26T18:01:02.512Z,12.02
2022-09-26T18:03:55.638Z,12.48
2022-09-26T18:06:44.106Z,10.95
2022-09-26T18:09:36.258Z,9.18
2022-09-26T18:12:25.625Z,13.43
2022-09-26T18:15:21.103Z,6.45
2022-09-26T18:18:15.550Z,6.80
2022-09-26T18:21:04.125Z,4.30
2022-09-26T18:23:58.033Z,5.05
2022-09-26T18:26:50.698Z,5.30
2022-09-26T18:29:44.550Z,6.43
2022-09-26T18:32:39.062Z,5.55
2022-09-26T18:35:34.617Z,5.03
2022-09-26T18:38:23.741Z,4.55
2022-09-26T18:44:25.583Z,5.18
2022-09-26T18:47:28.741Z,5.07
2022-09-26T18:50:24.537Z,7.38
2022-09-26T18:53:19.230Z,5.25
2022-09-26T18:56:31.875Z,6.13
2022-09-26T18:59:24.575Z,6.40
2022-09-26T19:02:25.535Z,6.05
2022-09-26T19:05:17.955Z,4.20
2022-09-26T19:08:06.249Z,9.10
2022-09-26T19:10:54.874Z,4.80
2022-09-26T19:13:44.711Z,4.60
2022-09-26T19:16:32.643Z,4.63
2022-09-26T19:19:23.158Z,4.40
2022-09-26T19:22:17.554Z,4.32
2022-09-26T19:25:08.023Z,6.65
2022-09-26T19:27:55.850Z,3.53
2022-09-26T19:30:43.416Z,4.47
2022-09-26T19:33:31.657Z,3.58
2022-09-26T19:36:22.206Z,5.85
2022-09-26T19:39:15.261Z,3.30
2022-09-26T19:44:53.988Z,4.93
2022-09-26T19:47:48.255Z,2.35
2022-09-26T19:50:40.633Z,3.47
2022-09-26T19:53:32.536Z,2.55
2022-09-26T19:56:20.693Z,4.13
2022-09-26T19:59:12.817Z,3.92
2022-09-26T20:02:01.094Z,3.53
2022-09-26T20:04:50.022Z,2.22
2022-09-26T20:07:38.265Z,2.33
2022-09-26T20:10:27.351Z,2.83
2022-09-26T20:13:16.169Z,2.20
2022-09-26T20:16:04.675Z,4.72
2022-09-26T20:18:55.785Z,4.57
2022-09-26T20:21:44.722Z,10.88
2022-09-26T20:24:38.044Z,24.42
2022-09-26T20:27:30.254Z,10.50
2022-09-26T20:30:37.398Z,15.65
2022-09-26T20:33:27.900Z,9.15
2022-09-26T20:36:16.521Z,15.18
2022-09-26T20:39:09.008Z,14.20
2022-09-26T20:41:57.221Z,9.65
2022-09-26T20:44:50.151Z,5.82
2022-09-26T20:47:41.497Z,5.10
2022-09-26T20:50:34.210Z,3.10
2022-09-26T20:53:24.532Z,4.30
2022-09-26T20:56:16.935Z,2.15
2022-09-26T20:59:05.683Z,3.00
2022-09-26T21:01:58.233Z,3.13
2022-09-26T21:04:46.381Z,2.13
2022-09-26T21:07:34.876Z,1.80
2022-09-26T21:10:29.225Z,2.20
2022-09-26T21:13:16.786Z,4.63
2022-09-26T21:16:04.722Z,2.95
2022-09-26T21:18:54.483Z,2.63
2022-09-26T21:21:42.172Z,2.63
2022-09-26T21:24:35.137Z,2.47
2022-09-26T21:31:47.601Z,2.95
2022-09-26T21:34:38.804Z,3.95
2022-09-26T21:37:26.570Z,3.50
2022-09-26T21:40:14.512Z,3.08
2022-09-26T21:43:08.985Z,4.80
2022-09-26T21:45:56.751Z,4.30
2022-09-26T21:48:44.726Z,3.80
2022-09-26T21:51:33.799Z,4.32
2022-09-26T21:54:28.002Z,3.50
2022-09-26T21:57:20.876Z,5.00
2022-09-26T22:00:11.484Z,4.18
2022-09-26T22:03:00.908Z,4.55
2022-09-26T22:05:48.709Z,3.60
2022-09-26T22:08:39.359Z,3.83
2022-09-26T22:11:27.025Z,4.05
2022-09-26T22:14:14.953Z,4.15
2022-09-26T22:17:02.927Z,5.22
2022-09-26T22:19:53.335Z,5.88
2022-09-26T22:22:40.863Z,2.80
2022-09-26T22:25:30.199Z,4.95
2022-09-26T22:28:18.156Z,3.47
2022-09-26T22:31:07.614Z,2.83
2022-09-26T22:33:59.360Z,2.85
2022-09-26T22:36:47.184Z,2.85
2022-09-26T22:39:35.040Z,3.97
2022-09-26T22:42:23.958Z,5.55
2022-09-26T22:45:12.604Z,2.60
2022-09-26T22:48:00.319Z,2.72
2022-09-26T22:50:48.058Z,3.10
2022-09-26T22:53:39.785Z,3.80
2022-09-26T22:56:27.572Z,2.78
2022-09-26T22:59:17.079Z,3.83
2022-09-26T23:02:05.125Z,2.60
2022-09-26T23:04:53.923Z,4.75
2022-09-26T23:07:42.039Z,3.22
2022-09-26T23:10:33.761Z,3.17
2022-09-26T23:13:23.264Z,3.28
2022-09-26T23:16:16.092Z,2.63
2022-09-26T23:19:04.476Z,2.53
2022-09-26T23:21:52.629Z,2.83
2022-09-26T23:24:40.271Z,3.80
2022-09-26T23:27:29.408Z,3.92
2022-09-26T23:30:18.579Z,3.15
2022-09-26T23:33:08.081Z,2.38
2022-09-26T23:35:59.168Z,1.70
2022-09-26T23:38:47.916Z,2.28
2022-09-26T23:41:35.432Z,2.70
2022-09-26T23:44:23.167Z,4.90
2022-09-26T23:47:11.091Z,2.40
2022-09-26T23:50:00.330Z,1.90
2022-09-26T23:52:48.774Z,4.85
2022-09-26T23:55:36.647Z,2.92
2022-09-26T23:58:24.613Z,3.20
